Aérodrome :
LOGIN :

S'inscrire | Disclaimer

   EN    FR    IT 

 










Légende :    VFR   VFR Marginal   IFR   IFR Intensif   IFR Très Intensif
Visi : 
Plafond : 
>= 8 km
>= 3000ft
5 à 8 km
1000 à 3000 ft
1500m à 5 km
500 à 1000 ft
800 à 1500m
200 à 500 ft
< 800m
< 200 ft
Symboles :   Orages  Brouillard  Fortes neiges  Fortes précipitations  Vent > 20 kt
SIGMETs :   Divers  Orages  Givrage  Turbulence  Onde Orograph.  Cendres Volcan.






- Altitude de l'aérodrome : 187 ft


ETNW - Wunstorf AB

DERNIER METAR :
  • 041520Z 07005KT 9999 FEW040CB SCT050 BKN110 22/13 Q1012 BLU BLU TEMPO GRN

METARs EXPIRÉS :
  • 041420Z 13003KT 9999 SCT045TCU SCT110 24/11 Q1012 BLU+BLU TEMPO GRN
  • 041320Z 09006KT 9999 SCT040TCU SCT110 24/12 Q1012 BLU+BLU TEMPO GRN

TAF TAF ETNW
Valide du 04 à 11h jusqu'au 05 à 11h UTC


041000Z 0411/0511 05005KT 9999 NSW BKN060
TEMPO 0412/0421 03010KT 4000 SHRA SCT015 BKN030CB
PROB30 0414/0419 05015KT 3000 TSRA SCT012 BKN020CB
TEMPO 0501/0508 07005KT 2000 BR BKN006
PROB30 0502/0507 09003KT 0500 FG BKN001 BY ETGL



MET'MAP, la Météo Aéronautique d'un coup d'oeil ! - Copyright ORBIFLY Décembre 2007 - Disclaimer

ORBIFLY MET'MAP TEAM :

Programmation & Développement : Alexandra Zaïnal
Sur une idée originale de : Baudouin d'Aumeries
Assistance à la programmation : Marc-Olivier Méhu
Soutien technique & logistique : Manuel Goepfert

Contact : metmap@orbifly.com




SOURCES & CREDITS :

   NOAA